Time;durP1;ratioP1;P1;durP2;ratioP2;P2;SDS_P1;SDS_P2;PMS_P1;PMS_P2;Temp;Humidity;BMP_temperature;BMP_pressure;BME280_temperature;BME280_humidity;BME280_pressure;Samples;Min_cycle;Max_cycle;Signal;HPM_P1;HPM_P2
2021/04/09 00:01:56;;;;;;;3.80;2.50;;;;;;;8.17;100.00;101559.80;1782442;80;26245;-76
2021/04/09 00:04:26;;;;;;;5.60;2.90;;;;;;;8.16;100.00;101570.02;1782640;80;26237;-77
2021/04/09 00:06:56;;;;;;;4.73;3.07;;;;;;;8.27;100.00;101570.17;1782584;80;26233;-77
2021/04/09 00:09:26;;;;;;;6.67;3.03;;;;;;;8.13;100.00;101567.73;1782489;79;26705;-77
2021/04/09 00:11:57;;;;;;;4.40;2.90;;;;;;;8.01;100.00;101559.23;1782751;80;26681;-76
2021/04/09 00:14:28;;;;;;;3.70;3.20;;;;;;;7.89;100.00;101565.38;1782573;80;26318;-76
2021/04/09 00:16:58;;;;;;;6.17;3.50;;;;;;;7.93;100.00;101560.48;1782566;80;26303;-76
2021/04/09 00:19:29;;;;;;;5.13;3.20;;;;;;;7.75;100.00;101560.71;1782551;80;26681;-76
2021/04/09 00:21:59;;;;;;;5.60;3.23;;;;;;;7.88;100.00;101552.09;1782437;80;26249;-76
2021/04/09 00:24:29;;;;;;;5.30;3.50;;;;;;;7.87;100.00;101551.83;1782732;80;26327;-76
2021/04/09 00:26:59;;;;;;;6.47;3.57;;;;;;;7.72;100.00;101552.92;1782549;80;26241;-76
2021/04/09 00:29:29;;;;;;;5.93;3.90;;;;;;;7.66;100.00;101543.69;1782466;80;26673;-76
2021/04/09 00:31:59;;;;;;;6.67;3.63;;;;;;;7.61;100.00;101540.02;1782687;80;26701;-77
2021/04/09 00:34:29;;;;;;;8.70;4.70;;;;;;;7.69;100.00;101530.77;1782636;80;26304;-76
2021/04/09 00:36:59;;;;;;;8.40;4.10;;;;;;;7.66;100.00;101527.09;1782507;80;26688;-76
2021/04/09 00:39:28;;;;;;;7.30;3.83;;;;;;;7.64;100.00;101529.83;1782585;80;26308;-77
2021/04/09 00:41:58;;;;;;;8.20;4.67;;;;;;;7.67;100.00;101526.02;1782756;80;26321;-77
2021/04/09 00:44:28;;;;;;;9.53;4.60;;;;;;;7.75;100.00;101520.61;1782659;80;26676;-77
2021/04/09 00:46:58;;;;;;;7.67;4.77;;;;;;;7.64;100.00;101514.63;1782706;80;26324;-76
2021/04/09 00:49:28;;;;;;;11.67;5.20;;;;;;;7.45;100.00;101511.23;1782585;80;26234;-77
2021/04/09 00:51:58;;;;;;;8.53;4.40;;;;;;;7.55;100.00;101510.59;1782751;80;26299;-77
2021/04/09 00:54:29;;;;;;;9.13;4.70;;;;;;;7.36;100.00;101507.77;1782863;80;26303;-77
2021/04/09 00:57:00;;;;;;;7.00;4.23;;;;;;;7.27;100.00;101516.42;1782751;80;26321;-77
2021/04/09 00:59:32;;;;;;;9.03;3.83;;;;;;;7.35;100.00;101512.45;1782838;80;26245;-77
2021/04/09 01:02:03;;;;;;;7.77;4.60;;;;;;;7.41;100.00;101507.83;1782655;80;26684;-77
2021/04/09 01:04:33;;;;;;;8.60;4.87;;;;;;;7.33;100.00;101506.31;1782697;80;26308;-77
2021/04/09 01:07:03;;;;;;;10.70;4.10;;;;;;;7.30;100.00;101506.82;1782635;80;26245;-76
2021/04/09 01:09:36;;;;;;;6.80;4.47;;;;;;;7.29;100.00;101505.13;1782607;79;26396;-77
2021/04/09 01:12:10;;;;;;;9.33;5.00;;;;;;;7.09;100.00;101506.97;1782635;80;26253;-77
2021/04/09 01:14:40;;;;;;;11.13;6.23;;;;;;;7.19;100.00;101503.00;1782604;80;26242;-77
2021/04/09 01:17:14;;;;;;;7.30;4.57;;;;;;;7.07;100.00;101501.37;1782479;80;26241;-77
2021/04/09 01:20:31;;;;;;;8.23;4.63;;;;;;;7.25;100.00;101498.42;1782666;80;26233;-76
2021/04/09 01:23:33;;;;;;;10.77;6.73;;;;;;;7.14;100.00;101493.27;1768945;80;26338;-75
2021/04/09 01:26:36;;;;;;;9.97;6.27;;;;;;;7.19;100.00;101492.50;1778021;80;26245;-76
2021/04/09 01:29:40;;;;;;;14.20;7.73;;;;;;;7.13;100.00;101493.50;1782575;80;26295;-76
2021/04/09 01:32:11;;;;;;;8.30;4.60;;;;;;;7.04;100.00;101487.53;1782730;80;26711;-78
2021/04/09 01:34:45;;;;;;;9.13;4.33;;;;;;;7.13;100.00;101487.44;1782493;80;26743;-78
2021/04/09 01:37:17;;;;;;;10.17;5.10;;;;;;;7.20;100.00;101478.44;1782669;80;26712;-78
2021/04/09 01:39:50;;;;;;;6.37;3.80;;;;;;;7.19;100.00;101479.52;1782575;80;26241;-78
2021/04/09 01:42:22;;;;;;;11.77;5.97;;;;;;;7.13;100.00;101477.77;1782622;80;26742;-77
2021/04/09 01:44:54;;;;;;;9.73;5.37;;;;;;;7.17;100.00;101474.80;1782791;80;26225;-78
2021/04/09 01:47:26;;;;;;;8.63;5.13;;;;;;;7.08;100.00;101475.44;1782568;80;26351;-77
2021/04/09 01:49:59;;;;;;;9.40;4.80;;;;;;;7.08;100.00;101474.91;1782688;80;26743;-76
2021/04/09 01:52:31;;;;;;;9.43;4.60;;;;;;;7.05;100.00;101480.09;1782627;80;26315;-77
2021/04/09 01:55:05;;;;;;;8.00;4.30;;;;;;;7.12;100.00;101471.94;1782576;80;26238;-77
2021/04/09 01:57:36;;;;;;;7.77;5.13;;;;;;;7.10;100.00;101461.66;1782533;80;26245;-77
2021/04/09 02:00:12;;;;;;;8.90;5.30;;;;;;;7.10;100.00;101460.85;1782513;80;26312;-77
2021/04/09 02:02:46;;;;;;;10.67;5.50;;;;;;;7.08;100.00;101451.96;1782453;80;26277;-78
2021/04/09 02:05:19;;;;;;;8.07;4.70;;;;;;;7.06;100.00;101457.72;1782490;80;26385;-78
2021/04/09 02:07:51;;;;;;;11.40;6.93;;;;;;;7.11;100.00;101450.91;1782543;80;26673;-76
2021/04/09 02:10:22;;;;;;;7.27;4.47;;;;;;;7.17;100.00;101449.94;1782484;79;26386;-76
2021/04/09 02:12:53;;;;;;;8.97;5.10;;;;;;;7.02;100.00;101444.66;1782580;80;26234;-76
2021/04/09 02:15:26;;;;;;;9.77;5.17;;;;;;;6.97;100.00;101458.39;1782545;80;26245;-76
2021/04/09 02:17:56;;;;;;;8.00;4.53;;;;;;;6.97;100.00;101453.70;1782530;80;26672;-77
2021/04/09 02:20:26;;;;;;;5.83;3.77;;;;;;;6.91;100.00;101463.50;1782573;80;26229;-78
2021/04/09 02:22:56;;;;;;;6.70;3.70;;;;;;;7.21;100.00;101451.12;1782597;80;26669;-78
2021/04/09 02:25:26;;;;;;;5.67;3.40;;;;;;;7.15;100.00;101455.40;1782542;80;26292;-74
2021/04/09 02:27:56;;;;;;;6.23;3.30;;;;;;;7.13;100.00;101458.43;1782531;80;26320;-77
2021/04/09 02:30:25;;;;;;;8.30;4.50;;;;;;;7.10;100.00;101449.23;1782601;80;26698;-78
2021/04/09 02:32:55;;;;;;;6.23;3.90;;;;;;;7.14;100.00;101451.83;1782654;80;26237;-77
2021/04/09 02:35:25;;;;;;;5.67;3.80;;;;;;;7.04;100.00;101450.78;1782527;80;26299;-75
2021/04/09 02:37:56;;;;;;;7.80;3.70;;;;;;;7.17;100.00;101443.57;1782824;80;26222;-76
2021/04/09 02:40:29;;;;;;;3.77;3.27;;;;;;;7.19;100.00;101444.98;1782555;80;26334;-76
2021/04/09 02:42:59;;;;;;;3.73;3.10;;;;;;;7.14;100.00;101439.94;1782491;80;26672;-76
2021/04/09 02:45:29;;;;;;;7.20;2.90;;;;;;;7.15;100.00;101441.58;1782524;80;26339;-76
2021/04/09 02:48:01;;;;;;;3.67;2.67;;;;;;;7.30;100.00;101443.26;1782520;80;26246;-76
2021/04/09 02:50:33;;;;;;;3.93;2.80;;;;;;;7.39;100.00;101445.91;1782422;80;26249;-75
2021/04/09 02:53:06;;;;;;;6.80;3.10;;;;;;;7.32;100.00;101439.15;1782535;80;26245;-75
2021/04/09 02:55:39;;;;;;;5.73;3.13;;;;;;;7.43;100.00;101436.03;1782491;80;26241;-75
2021/04/09 02:58:10;;;;;;;6.17;2.90;;;;;;;7.44;100.00;101422.52;1782559;80;26224;-75
2021/04/09 03:00:45;;;;;;;4.63;2.53;;;;;;;7.57;100.00;101424.11;1782421;80;26325;-75
2021/04/09 03:03:16;;;;;;;6.70;2.93;;;;;;;7.44;100.00;101422.52;1782476;80;26371;-76
2021/04/09 03:05:48;;;;;;;4.50;2.63;;;;;;;7.52;100.00;101421.25;1782408;80;26240;-76
2021/04/09 03:08:19;;;;;;;5.07;3.23;;;;;;;7.51;100.00;101432.01;1782520;80;26233;-75
2021/04/09 03:10:49;;;;;;;4.33;2.67;;;;;;;7.52;100.00;101423.48;1782400;79;26751;-76
2021/04/09 03:13:19;;;;;;;4.87;2.70;;;;;;;7.49;100.00;101421.19;1782496;80;26245;-75
2021/04/09 03:15:53;;;;;;;5.37;2.80;;;;;;;7.51;100.00;101426.48;1782500;80;26307;-75
2021/04/09 03:18:41;;;;;;;4.07;2.80;;;;;;;7.49;100.00;101428.10;1756519;82;33436;-76
2021/04/09 03:21:11;;;;;;;3.53;2.63;;;;;;;7.56;100.00;101426.03;1756897;82;26264;-75
2021/04/09 03:23:41;;;;;;;6.67;3.10;;;;;;;7.50;100.00;101417.34;1757012;81;26699;-75
2021/04/09 03:26:11;;;;;;;4.20;2.93;;;;;;;7.55;100.00;101424.34;1757154;81;26256;-75
2021/04/09 03:28:41;;;;;;;4.17;2.50;;;;;;;7.52;100.00;101418.48;1757151;81;26261;-76
2021/04/09 03:31:11;;;;;;;5.27;2.70;;;;;;;7.52;100.00;101417.95;1757127;82;26260;-76
2021/04/09 03:33:41;;;;;;;5.30;3.07;;;;;;;7.41;100.00;101424.38;1757065;81;26687;-76
2021/04/09 03:36:11;;;;;;;5.03;2.83;;;;;;;7.47;100.00;101422.55;1757124;81;26268;-76
2021/04/09 03:38:40;;;;;;;3.77;3.03;;;;;;;7.48;100.00;101419.54;1757150;81;26259;-77
2021/04/09 03:41:10;;;;;;;5.40;2.87;;;;;;;7.40;100.00;101416.36;1757208;81;26260;-76
2021/04/09 03:43:40;;;;;;;3.93;2.57;;;;;;;7.46;100.00;101412.57;1757151;81;26844;-75
2021/04/09 03:46:10;;;;;;;4.73;2.67;;;;;;;7.47;100.00;101408.72;1757185;81;26346;-76
2021/04/09 03:48:40;;;;;;;5.97;3.30;;;;;;;7.52;100.00;101406.89;1757202;81;26268;-76
2021/04/09 03:51:10;;;;;;;4.10;2.60;;;;;;;7.35;100.00;101408.81;1781966;80;26335;-76
2021/04/09 03:53:42;;;;;;;4.10;2.60;;;;;;;7.43;100.00;101408.39;1782350;80;26301;-76
2021/04/09 03:56:12;;;;;;;7.63;2.83;;;;;;;7.46;100.00;101416.72;1782434;80;26245;-75
2021/04/09 03:58:41;;;;;;;4.37;2.50;;;;;;;7.48;100.00;101413.17;1782667;80;26237;-76
2021/04/09 04:01:12;;;;;;;3.63;2.27;;;;;;;7.42;100.00;101417.77;1750331;80;930527;-76
2021/04/09 04:03:42;;;;;;;3.07;2.77;;;;;;;7.31;100.00;101408.48;1735750;82;26294;-76
2021/04/09 04:06:11;;;;;;;3.60;2.37;;;;;;;7.29;100.00;101406.50;1735919;82;26709;-77
2021/04/09 04:08:41;;;;;;;3.83;2.37;;;;;;;7.40;100.00;101399.77;1735879;82;26258;-75
2021/04/09 04:11:11;;;;;;;4.57;2.73;;;;;;;7.43;100.00;101398.72;1735871;80;26262;-76
2021/04/09 04:13:41;;;;;;;4.23;2.60;;;;;;;7.38;100.00;101395.87;1736099;81;26371;-76
2021/04/09 04:16:11;;;;;;;4.53;2.80;;;;;;;7.37;100.00;101396.11;1735867;83;26670;-76
2021/04/09 04:18:40;;;;;;;2.63;2.30;;;;;;;7.37;100.00;101397.48;1735908;82;26254;-76
2021/04/09 04:21:10;;;;;;;6.17;3.23;;;;;;;7.25;100.00;101404.48;1735986;83;26263;-77
2021/04/09 04:23:40;;;;;;;5.63;3.03;;;;;;;7.19;100.00;101404.92;1736034;83;26388;-76
2021/04/09 04:26:10;;;;;;;6.00;2.73;;;;;;;7.25;100.00;101410.84;1735901;83;26255;-76
2021/04/09 04:28:40;;;;;;;3.70;2.87;;;;;;;7.23;100.00;101410.24;1735878;83;26334;-76
2021/04/09 04:31:10;;;;;;;4.63;3.00;;;;;;;7.12;100.00;101413.92;1735897;83;26372;-77
2021/04/09 04:33:39;;;;;;;4.43;3.37;;;;;;;7.17;100.00;101403.52;1735901;82;26670;-75
2021/04/09 04:36:09;;;;;;;3.73;2.70;;;;;;;7.18;100.00;101411.56;1735924;82;26255;-76
2021/04/09 04:38:39;;;;;;;6.13;3.37;;;;;;;7.25;100.00;101403.09;1735891;82;26390;-76
2021/04/09 04:41:09;;;;;;;6.50;3.03;;;;;;;7.21;100.00;101404.69;1735966;83;26338;-76
2021/04/09 04:43:39;;;;;;;5.40;3.60;;;;;;;7.13;100.00;101396.27;1735869;82;26705;-75
2021/04/09 04:46:09;;;;;;;5.03;3.17;;;;;;;6.97;100.00;101390.19;1735975;83;26263;-75
2021/04/09 04:48:39;;;;;;;8.13;3.70;;;;;;;6.94;100.00;101392.03;1736090;82;26243;-75
2021/04/09 04:51:09;;;;;;;4.47;3.20;;;;;;;6.99;100.00;101387.99;1735982;83;26710;-75
2021/04/09 04:53:39;;;;;;;5.77;3.50;;;;;;;6.94;100.00;101382.91;1736071;82;26270;-76
2021/04/09 04:56:08;;;;;;;5.13;3.37;;;;;;;6.87;100.00;101380.31;1736013;82;26313;-76
2021/04/09 04:58:38;;;;;;;6.27;3.23;;;;;;;6.79;100.00;101386.24;1736051;83;26254;-77
2021/04/09 05:01:08;;;;;;;6.70;4.00;;;;;;;6.92;100.00;101378.20;1735935;83;26738;-76
2021/04/09 05:03:38;;;;;;;6.83;3.57;;;;;;;6.78;100.00;101381.27;1736119;82;26310;-75
2021/04/09 05:06:08;;;;;;;5.40;3.27;;;;;;;6.71;100.00;101378.36;1736089;83;26247;-76
2021/04/09 05:08:38;;;;;;;5.03;3.60;;;;;;;6.53;100.00;101375.25;1736073;83;26301;-75
2021/04/09 05:11:09;;;;;;;5.53;3.63;;;;;;;6.52;100.00;101369.43;1736067;83;26255;-78
2021/04/09 05:13:40;;;;;;;7.33;3.67;;;;;;;6.55;100.00;101370.31;1736114;80;26465;-78
2021/04/09 05:16:09;;;;;;;7.37;3.87;;;;;;;6.61;100.00;101371.25;1735994;83;26266;-78
2021/04/09 05:18:39;;;;;;;6.73;4.40;;;;;;;6.58;100.00;101374.52;1736054;83;26698;-75
2021/04/09 05:21:10;;;;;;;6.37;4.07;;;;;;;6.67;100.00;101375.80;1736014;83;26262;-78
2021/04/09 05:23:40;;;;;;;6.00;4.00;;;;;;;6.62;100.00;101376.54;1735978;83;26262;-75
2021/04/09 05:26:10;;;;;;;7.07;4.23;;;;;;;6.70;100.00;101380.28;1735970;82;26317;-78
2021/04/09 05:28:39;;;;;;;5.33;3.97;;;;;;;6.55;100.00;101379.13;1735861;83;26266;-76
2021/04/09 05:31:09;;;;;;;7.17;4.10;;;;;;;6.52;100.00;101379.09;1735973;82;26256;-77
2021/04/09 05:33:39;;;;;;;6.97;4.20;;;;;;;6.56;100.00;101383.03;1736070;82;26702;-76
2021/04/09 05:36:11;;;;;;;7.40;3.73;;;;;;;6.53;100.00;101382.16;1736105;82;26259;-76
2021/04/09 05:38:40;;;;;;;5.07;3.43;;;;;;;6.36;100.00;101378.48;1736057;82;26332;-75
2021/04/09 05:41:10;;;;;;;5.13;4.10;;;;;;;6.13;100.00;101379.91;1736022;83;26710;-75
2021/04/09 05:43:40;;;;;;;5.80;3.63;;;;;;;6.09;100.00;101380.95;1735904;83;26348;-75
2021/04/09 05:46:10;;;;;;;4.83;3.90;;;;;;;6.10;100.00;101380.41;1735930;83;26666;-75
2021/04/09 05:48:40;;;;;;;6.70;3.90;;;;;;;6.12;100.00;101381.02;1735959;82;26311;-76
2021/04/09 05:51:10;;;;;;;6.13;3.77;;;;;;;6.21;100.00;101383.67;1735906;83;26702;-75
2021/04/09 05:53:40;;;;;;;5.97;3.77;;;;;;;6.05;100.00;101384.43;1736037;82;26251;-75
2021/04/09 05:56:10;;;;;;;9.33;3.70;;;;;;;5.89;100.00;101386.86;1735849;82;26694;-75
2021/04/09 05:58:40;;;;;;;5.80;4.13;;;;;;;6.00;100.00;101382.93;1735979;82;26262;-75
2021/04/09 06:01:10;;;;;;;7.30;4.10;;;;;;;5.91;100.00;101384.69;1736041;82;26259;-75
2021/04/09 06:03:40;;;;;;;4.83;4.00;;;;;;;5.80;100.00;101384.67;1735808;83;26279;-76
2021/04/09 06:06:11;;;;;;;4.73;3.90;;;;;;;5.99;100.00;101390.36;1736034;83;26681;-75
2021/04/09 06:08:41;;;;;;;5.27;3.90;;;;;;;6.06;100.00;101389.71;1735966;82;26722;-75
2021/04/09 06:11:12;;;;;;;5.87;3.97;;;;;;;5.99;100.00;101397.82;1735951;83;26295;-75
2021/04/09 06:13:42;;;;;;;9.80;4.27;;;;;;;6.15;100.00;101397.07;1735881;80;26301;-74
2021/04/09 06:16:13;;;;;;;10.97;4.73;;;;;;;6.23;100.00;101395.31;1735889;82;26258;-75
2021/04/09 06:18:43;;;;;;;6.37;4.20;;;;;;;6.30;100.00;101392.71;1735977;82;26247;-75
2021/04/09 06:21:12;;;;;;;7.83;4.77;;;;;;;6.27;100.00;101395.97;1735889;82;26784;-75
2021/04/09 06:23:42;;;;;;;9.57;4.60;;;;;;;6.30;100.00;101390.48;1735860;82;26784;-75
2021/04/09 06:26:12;;;;;;;7.17;4.33;;;;;;;6.44;100.00;101396.03;1735857;82;26255;-75
2021/04/09 06:28:42;;;;;;;7.67;4.60;;;;;;;6.47;100.00;101394.70;1735902;82;26352;-75
2021/04/09 06:31:12;;;;;;;6.00;5.03;;;;;;;6.52;100.00;101394.27;1736046;82;26322;-75
2021/04/09 06:33:42;;;;;;;7.93;4.63;;;;;;;6.68;100.00;101385.73;1736112;82;26267;-76
2021/04/09 06:36:12;;;;;;;5.20;4.70;;;;;;;6.65;100.00;101383.48;1735894;83;26247;-75
2021/04/09 06:38:42;;;;;;;7.27;5.40;;;;;;;6.68;100.00;101381.59;1735950;82;26254;-75
2021/04/09 06:41:12;;;;;;;10.10;5.27;;;;;;;6.67;100.00;101386.30;1735917;83;26267;-76
2021/04/09 06:43:42;;;;;;;8.77;5.30;;;;;;;6.66;100.00;101381.86;1735939;83;26251;-76
2021/04/09 06:46:12;;;;;;;7.67;5.30;;;;;;;6.83;100.00;101391.03;1736064;82;26266;-76
2021/04/09 06:48:42;;;;;;;9.03;5.27;;;;;;;6.94;100.00;101385.67;1735867;83;26351;-76
2021/04/09 06:51:13;;;;;;;7.17;5.53;;;;;;;6.99;100.00;101381.09;1735857;82;26259;-75
2021/04/09 06:53:46;;;;;;;7.47;5.47;;;;;;;7.12;100.00;101376.63;1736036;82;26333;-76
2021/04/09 06:56:17;;;;;;;8.07;4.90;;;;;;;7.22;100.00;101372.67;1736069;83;26292;-75
2021/04/09 06:58:49;;;;;;;10.23;5.10;;;;;;;7.30;100.00;101370.88;1735954;83;26267;-76
2021/04/09 07:01:20;;;;;;;8.43;5.10;;;;;;;7.29;100.00;101373.88;1735925;82;26693;-75
2021/04/09 07:03:51;;;;;;;9.40;5.43;;;;;;;7.30;100.00;101378.32;1735882;82;26345;-76
2021/04/09 07:06:20;;;;;;;7.27;4.87;;;;;;;7.44;100.00;101376.07;1735808;82;26341;-75
2021/04/09 07:08:50;;;;;;;7.73;4.40;;;;;;;7.53;100.00;101366.27;1735906;82;26678;-76
2021/04/09 07:11:20;;;;;;;7.07;4.60;;;;;;;7.58;100.00;101374.61;1735982;82;26258;-75
2021/04/09 07:13:51;;;;;;;5.50;4.27;;;;;;;7.62;100.00;101366.95;1735882;80;26421;-75
2021/04/09 07:16:21;;;;;;;6.57;4.37;;;;;;;7.75;100.00;101366.59;1735891;82;26348;-75
2021/04/09 07:18:53;;;;;;;8.67;4.70;;;;;;;7.92;100.00;101365.72;1735935;82;26259;-75
2021/04/09 07:21:28;;;;;;;7.90;4.00;;;;;;;7.98;100.00;101369.70;1735999;83;26333;-75
2021/04/09 07:24:21;;;;;;;7.17;3.17;;;;;;;8.16;100.00;101369.95;1736029;82;26290;-81
2021/04/09 07:26:52;;;;;;;4.83;3.53;;;;;;;8.33;100.00;101361.61;1736050;82;26341;-75
2021/04/09 07:29:45;;;;;;;4.77;2.90;;;;;;;8.59;100.00;101366.36;1735918;82;26338;-76
2021/04/09 07:32:35;;;;;;;5.40;3.00;;;;;;;8.78;100.00;101357.97;1735967;82;26655;-78
2021/04/09 07:35:13;;;;;;;6.13;2.53;;;;;;;8.91;100.00;101358.94;1735956;82;26295;-75
2021/04/09 07:37:57;;;;;;;6.07;2.70;;;;;;;8.99;100.00;101350.69;1735874;82;26258;-75
2021/04/09 07:40:30;;;;;;;3.73;2.27;;;;;;;9.08;100.00;101355.50;1735917;82;26336;-75
2021/04/09 07:43:01;;;;;;;5.57;2.90;;;;;;;9.18;100.00;101348.38;1735857;83;26701;-78
2021/04/09 07:45:34;;;;;;;4.13;2.23;;;;;;;9.29;100.00;101346.81;1736181;82;26262;-74
2021/04/09 07:48:07;;;;;;;4.57;1.70;;;;;;;9.37;100.00;101345.52;1735929;82;26263;-78
2021/04/09 07:50:45;;;;;;;5.17;1.90;;;;;;;9.53;100.00;101339.81;1705600;84;26459;-79
2021/04/09 07:53:18;;;;;;;3.47;2.23;;;;;;;9.69;100.00;101343.52;1735907;83;26258;-80
2021/04/09 07:55:50;;;;;;;2.97;1.63;;;;;;;9.83;100.00;101335.02;1735930;82;26387;-79
2021/04/09 07:58:22;;;;;;;4.43;1.77;;;;;;;9.91;100.00;101334.50;1735983;82;26665;-81
2021/04/09 08:00:53;;;;;;;3.77;1.97;;;;;;;10.02;100.00;101328.44;1735895;83;26333;-79
2021/04/09 08:03:34;;;;;;;2.20;1.60;;;;;;;10.04;100.00;101330.41;1735995;82;26397;-82
2021/04/09 08:06:13;;;;;;;3.53;1.60;;;;;;;10.38;100.00;101325.30;1736069;82;26328;-76
2021/04/09 08:08:57;;;;;;;2.27;1.23;;;;;;;10.51;100.00;101322.02;1736122;82;26251;-75
2021/04/09 08:11:30;;;;;;;5.13;1.50;;;;;;;10.75;100.00;101320.95;1736011;82;26257;-76
2021/04/09 08:14:09;;;;;;;3.63;1.40;;;;;;;10.70;100.00;101311.20;1735924;82;26326;-74
2021/04/09 08:16:41;;;;;;;2.50;1.57;;;;;;;10.90;100.00;101304.31;1735997;81;26897;-74
2021/04/09 08:19:13;;;;;;;4.37;1.70;;;;;;;11.08;100.00;101293.20;1735943;83;26255;-74
2021/04/09 08:21:49;;;;;;;4.50;2.30;;;;;;;11.14;100.00;101304.04;1735931;83;26266;-73
2021/04/09 08:24:20;;;;;;;3.00;1.90;;;;;;;10.84;100.00;101311.80;1735905;82;26294;-73
2021/04/09 08:26:52;;;;;;;3.30;1.70;;;;;;;11.03;100.00;101302.38;1735980;83;26267;-74
2021/04/09 08:29:23;;;;;;;3.50;1.77;;;;;;;11.37;100.00;101305.43;1735878;82;26334;-74
2021/04/09 08:31:54;;;;;;;2.90;1.77;;;;;;;11.62;100.00;101304.55;1735902;82;26336;-73
2021/04/09 08:34:25;;;;;;;3.57;2.00;;;;;;;11.51;100.00;101295.96;1736024;82;26239;-73
2021/04/09 08:36:55;;;;;;;2.80;1.90;;;;;;;11.58;100.00;101295.10;1735963;82;26402;-74
2021/04/09 08:39:27;;;;;;;4.07;1.57;;;;;;;11.69;100.00;101298.97;1735898;82;26353;-74
2021/04/09 08:41:58;;;;;;;2.77;1.73;;;;;;;11.65;100.00;101301.20;1735919;82;26275;-74
2021/04/09 08:44:28;;;;;;;2.93;1.50;;;;;;;11.71;100.00;101307.88;1735967;82;26356;-74
2021/04/09 08:46:59;;;;;;;4.43;1.80;;;;;;;11.76;100.00;101309.30;1735857;82;26271;-74
2021/04/09 08:49:32;;;;;;;2.87;1.80;;;;;;;12.02;100.00;101305.88;1735879;82;26263;-74
2021/04/09 08:52:04;;;;;;;4.17;1.73;;;;;;;11.89;100.00;101302.30;1735881;83;26270;-74
2021/04/09 08:54:34;;;;;;;2.33;1.20;;;;;;;12.06;100.00;101313.11;1735843;83;26266;-74
2021/04/09 08:57:06;;;;;;;4.70;1.60;;;;;;;12.22;100.00;101304.95;1735843;83;26271;-74
2021/04/09 08:59:44;;;;;;;1.83;1.23;;;;;;;12.54;100.00;101301.16;1735925;83;26322;-74
2021/04/09 09:02:24;;;;;;;2.50;1.23;;;;;;;12.49;100.00;101304.00;1735980;82;26291;-75
2021/04/09 09:05:01;;;;;;;3.43;1.50;;;;;;;12.73;100.00;101304.13;1736111;83;26310;-74
2021/04/09 09:08:06;;;;;;;2.27;1.10;;;;;;;12.59;100.00;101305.31;1735944;82;26263;-74
2021/04/09 09:11:01;;;;;;;3.23;1.20;;;;;;;12.71;100.00;101302.17;1735990;82;26247;-75
2021/04/09 09:13:42;;;;;;;1.60;0.93;;;;;;;12.27;100.00;101313.30;1735887;82;26332;-75
2021/04/09 09:16:17;;;;;;;2.87;1.10;;;;;;;12.18;100.00;101307.48;1735782;80;26392;-75
2021/04/09 09:18:55;;;;;;;2.70;1.10;;;;;;;12.07;100.00;101305.84;1735886;83;26305;-75
2021/04/09 09:21:36;;;;;;;3.00;1.10;;;;;;;12.06;100.00;101313.11;1735869;83;26262;-75
2021/04/09 09:24:18;;;;;;;2.07;1.40;;;;;;;12.12;100.00;101307.22;1736079;82;26730;-74
2021/04/09 09:26:49;;;;;;;3.03;1.17;;;;;;;12.54;100.00;101296.98;1736097;82;26267;-75
2021/04/09 09:29:25;;;;;;;3.07;1.20;;;;;;;12.44;100.00;101306.81;1736040;82;26487;-75
2021/04/09 09:32:01;;;;;;;1.67;1.00;;;;;;;12.32;100.00;101306.31;1736216;82;26352;-75
2021/04/09 09:34:39;;;;;;;3.23;1.00;;;;;;;12.32;100.00;101305.73;1736103;82;26294;-75
2021/04/09 09:37:13;;;;;;;3.17;1.10;;;;;;;12.23;100.00;101302.45;1736153;83;26280;-75
2021/04/09 09:39:46;;;;;;;6.07;1.63;;;;;;;12.05;100.00;101304.47;1736139;83;26702;-75
2021/04/09 09:42:39;;;;;;;1.77;0.90;;;;;;;11.88;100.00;101295.06;1735972;82;26340;-75
2021/04/09 09:45:12;;;;;;;2.73;1.00;;;;;;;11.98;100.00;101286.66;1728319;82;26251;-75
2021/04/09 09:47:44;;;;;;;1.97;1.20;;;;;;;11.97;100.00;101287.80;1735873;82;26342;-75
2021/04/09 09:50:21;;;;;;;1.50;1.07;;;;;;;11.86;100.00;101291.72;1735895;83;26669;-74
2021/04/09 09:52:57;;;;;;;2.53;1.23;;;;;;;12.06;100.00;101286.09;1735992;83;26382;-74
2021/04/09 09:55:29;;;;;;;1.47;1.03;;;;;;;12.26;100.00;101280.98;1735929;82;26287;-76
2021/04/09 09:58:04;;;;;;;2.37;1.30;;;;;;;12.56;100.00;101282.77;1735927;82;26262;-77
2021/04/09 10:00:40;;;;;;;1.57;1.03;;;;;;;12.30;100.00;101285.70;1736003;82;26426;-76
2021/04/09 10:03:21;;;;;;;1.73;1.07;;;;;;;12.16;100.00;101285.20;1735953;83;26299;-76
2021/04/09 10:05:53;;;;;;;2.53;1.33;;;;;;;11.98;100.00;101278.89;1736105;83;26298;-76
2021/04/09 10:08:25;;;;;;;2.20;1.30;;;;;;;12.05;100.00;101283.03;1736030;82;26709;-76
2021/04/09 10:10:56;;;;;;;2.33;1.30;;;;;;;12.20;100.00;101277.94;1735869;83;26275;-74
2021/04/09 10:13:28;;;;;;;1.67;1.20;;;;;;;12.33;100.00;101280.10;1735901;82;26267;-75
2021/04/09 10:16:07;;;;;;;1.97;0.97;;;;;;;12.39;100.00;101270.61;1735884;80;26377;-75
2021/04/09 10:18:39;;;;;;;2.17;1.50;;;;;;;12.24;100.00;101271.52;1735999;82;26259;-75
2021/04/09 10:21:16;;;;;;;3.20;1.87;;;;;;;12.12;100.00;101273.80;1735902;82;26364;-75
2021/04/09 10:23:48;;;;;;;1.00;1.00;;;;;;;12.01;100.00;101277.76;1735936;83;26670;-75
2021/04/09 10:26:25;;;;;;;3.37;1.07;;;;;;;12.47;100.00;101264.98;1735920;83;26337;-75
2021/04/09 10:28:55;;;;;;;3.67;1.50;;;;;;;13.13;100.00;101252.27;1735973;83;26270;-75
2021/04/09 10:31:25;;;;;;;2.13;1.70;;;;;;;13.12;100.00;101258.13;1735956;83;26325;-76
2021/04/09 10:33:59;;;;;;;1.77;1.00;;;;;;;13.38;100.00;101252.59;1735934;82;26317;-74
2021/04/09 10:36:30;;;;;;;2.23;0.97;;;;;;;13.50;100.00;101250.79;1735958;82;26325;-74
2021/04/09 10:39:03;;;;;;;1.87;1.10;;;;;;;13.67;100.00;101245.02;1736029;83;26685;-74
2021/04/09 10:41:35;;;;;;;2.13;1.10;;;;;;;13.86;100.00;101250.64;1736025;83;26356;-74
2021/04/09 10:44:07;;;;;;;3.00;1.20;;;;;;;13.88;100.00;101248.41;1735899;82;26247;-75
2021/04/09 10:46:40;;;;;;;2.37;1.50;;;;;;;13.70;100.00;101240.78;1735899;82;26804;-74
2021/04/09 10:49:11;;;;;;;3.07;1.13;;;;;;;13.54;100.00;101239.30;1735999;83;26266;-74
2021/04/09 10:51:45;;;;;;;1.93;0.90;;;;;;;13.97;100.00;101241.59;1735866;82;26629;-74
2021/04/09 10:54:17;;;;;;;2.17;0.90;;;;;;;13.90;100.00;101239.73;1735940;82;26326;-74
2021/04/09 10:56:52;;;;;;;0.73;0.63;;;;;;;14.01;100.00;101243.49;1736042;82;26317;-74
2021/04/09 10:59:24;;;;;;;2.90;1.20;;;;;;;14.03;100.00;101245.41;1735909;82;26560;-74
2021/04/09 11:01:54;;;;;;;2.07;0.70;;;;;;;14.00;100.00;101244.61;1735952;83;26258;-74
2021/04/09 11:04:25;;;;;;;2.00;0.83;;;;;;;13.89;100.00;101240.86;1735930;83;26345;-74
2021/04/09 11:06:57;;;;;;;1.13;0.80;;;;;;;13.86;100.00;101238.08;1735912;82;26274;-74
2021/04/09 11:09:41;;;;;;;1.97;0.80;;;;;;;13.79;100.00;101235.38;1735931;83;26717;-75
2021/04/09 11:12:25;;;;;;;2.43;1.10;;;;;;;13.47;100.00;101232.69;1736167;83;26258;-74
2021/04/09 11:15:05;;;;;;;1.50;0.90;;;;;;;13.51;100.00;101233.77;1735941;83;26346;-74
2021/04/09 11:17:37;;;;;;;2.03;1.00;;;;;;;13.57;100.00;101227.53;1735830;80;26381;-75
2021/04/09 11:20:24;;;;;;;1.47;1.10;;;;;;;13.67;100.00;101226.87;1735900;82;26336;-75
2021/04/09 11:23:05;;;;;;;2.80;1.03;;;;;;;13.60;100.00;101228.36;1736106;82;26292;-74
2021/04/09 11:25:37;;;;;;;1.50;1.30;;;;;;;13.40;100.00;101228.00;1735881;83;26344;-74
2021/04/09 11:28:08;;;;;;;1.50;1.03;;;;;;;13.32;100.00;101216.65;1735826;83;26365;-75
2021/04/09 11:30:39;;;;;;;1.20;1.10;;;;;;;13.39;100.00;101222.14;1735847;82;26399;-75
2021/04/09 11:33:09;;;;;;;1.97;1.13;;;;;;;13.35;100.00;101225.25;1735940;82;26259;-74
2021/04/09 11:35:39;;;;;;;1.50;1.13;;;;;;;13.52;100.00;101217.25;1735936;83;26263;-74
2021/04/09 11:38:16;;;;;;;3.40;1.00;;;;;;;13.58;100.00;101220.27;1735946;82;26278;-74
2021/04/09 11:40:47;;;;;;;1.63;1.10;;;;;;;13.63;100.00;101217.43;1735937;82;26329;-74
2021/04/09 11:43:20;;;;;;;1.70;0.97;;;;;;;13.68;100.00;101214.58;1735905;83;26259;-74
2021/04/09 11:45:51;;;;;;;2.73;1.10;;;;;;;13.80;100.00;101212.77;1735877;82;26713;-74
2021/04/09 11:48:26;;;;;;;1.33;0.90;;;;;;;13.87;100.00;101212.39;1735914;83;26270;-73